Time;durP1;ratioP1;P1;durP2;ratioP2;P2;SDS_P1;SDS_P2;PMS_P1;PMS_P2;Temp;Humidity;BMP_temperature;BMP_pressure;BME280_temperature;BME280_humidity;BME280_pressure;Samples;Min_cycle;Max_cycle;Signal;HPM_P1;HPM_P2
2021/07/10 00:00:16;;;;;;;9.85;5.07;;;;;;;22.51;65.72;100798.91;5018326;28;20025;-83
2021/07/10 00:02:42;;;;;;;13.40;5.28;;;;;;;22.37;65.79;100795.97;5023020;28;20141;-84
2021/07/10 00:05:10;;;;;;;8.38;5.63;;;;;;;22.29;65.58;100789.13;5022597;28;20496;-82
2021/07/10 00:07:36;;;;;;;9.35;5.45;;;;;;;22.32;65.18;100788.13;5000620;28;20386;-83
2021/07/10 00:10:06;;;;;;;12.30;4.55;;;;;;;22.44;65.09;100781.38;5035536;28;20021;-82
2021/07/10 00:12:31;;;;;;;10.32;5.03;;;;;;;22.21;65.69;100785.03;5027800;28;20033;-83
2021/07/10 00:14:57;;;;;;;9.27;4.90;;;;;;;22.25;65.82;100784.00;5026212;28;20033;-84
2021/07/10 00:17:25;;;;;;;8.40;5.43;;;;;;;22.30;65.54;100788.19;4992208;28;20056;-78
2021/07/10 00:19:52;;;;;;;9.95;6.53;;;;;;;22.30;66.15;100784.66;5017202;28;20036;-83
2021/07/10 00:22:20;;;;;;;8.65;5.38;;;;;;;22.37;65.91;100785.25;5026046;28;20033;-81
2021/07/10 00:24:46;;;;;;;8.25;5.28;;;;;;;22.28;66.25;100791.88;5013616;28;20053;-82
2021/07/10 00:27:12;;;;;;;10.52;5.20;;;;;;;22.14;66.37;100787.06;5014187;28;20451;-82
2021/07/10 00:29:37;;;;;;;9.70;5.72;;;;;;;22.19;67.36;100781.53;5023567;28;20576;-82
2021/07/10 00:32:04;;;;;;;23.73;5.65;;;;;;;22.01;67.28;100783.16;5019613;28;20463;-82
2021/07/10 00:34:29;;;;;;;7.03;5.22;;;;;;;22.05;67.48;100788.31;5003561;28;20037;-82
2021/07/10 00:36:55;;;;;;;13.77;5.45;;;;;;;22.11;67.53;100779.19;5008644;28;20445;-83
2021/07/10 00:39:20;;;;;;;14.15;6.20;;;;;;;22.10;67.19;100793.47;5024368;28;20091;-82
2021/07/10 00:41:46;;;;;;;13.27;6.80;;;;;;;22.05;66.92;100790.13;5043274;28;20124;-82
2021/07/10 00:44:11;;;;;;;14.25;7.13;;;;;;;22.00;67.02;100790.31;5026982;28;20376;-82
2021/07/10 00:46:37;;;;;;;9.85;6.38;;;;;;;21.85;67.87;100783.81;5012845;28;20545;-82
2021/07/10 00:49:02;;;;;;;10.77;4.70;;;;;;;21.89;68.12;100776.53;5029327;28;20461;-81
2021/07/10 00:51:28;;;;;;;8.40;6.07;;;;;;;21.87;68.91;100781.09;5027795;28;20393;-82
2021/07/10 00:53:53;;;;;;;10.05;6.30;;;;;;;21.51;70.38;100781.63;5015014;28;20068;-84
2021/07/10 00:56:19;;;;;;;6.75;5.30;;;;;;;21.58;70.74;100785.78;5015056;28;20455;-86
2021/07/10 00:58:49;;;;;;;11.13;6.57;;;;;;;21.62;70.75;100778.53;5029281;28;20109;-86
2021/07/10 01:01:15;;;;;;;15.50;6.13;;;;;;;21.65;70.20;100783.75;5007665;28;20065;-86
2021/07/10 01:03:44;;;;;;;10.80;5.53;;;;;;;21.50;69.83;100766.53;5044792;28;20033;-86
2021/07/10 01:06:11;;;;;;;12.30;5.93;;;;;;;21.46;69.37;100764.91;5032538;28;20025;-86
2021/07/10 01:08:37;;;;;;;10.32;6.18;;;;;;;21.31;69.54;100762.84;5053592;28;20017;-86
2021/07/10 01:11:03;;;;;;;17.35;7.38;;;;;;;21.31;69.39;100771.69;5042826;28;20482;-82
2021/07/10 01:13:29;;;;;;;15.38;6.75;;;;;;;21.17;70.08;100769.56;5031477;28;20637;-83
2021/07/10 01:15:54;;;;;;;11.25;5.85;;;;;;;21.07;70.41;100765.47;5040457;28;20032;-82
2021/07/10 01:18:20;;;;;;;11.45;6.50;;;;;;;20.94;70.26;100759.75;5047278;28;20118;-83
2021/07/10 01:20:51;;;;;;;8.07;6.40;;;;;;;20.80;71.36;100765.59;5047279;28;20020;-82
2021/07/10 01:23:17;;;;;;;11.82;5.78;;;;;;;20.86;70.92;100762.72;5032660;28;20033;-83
2021/07/10 01:25:44;;;;;;;11.18;7.07;;;;;;;20.76;71.27;100752.44;5049299;28;20020;-83
2021/07/10 01:28:11;;;;;;;12.73;7.25;;;;;;;20.70;71.42;100757.97;5048355;28;20103;-84
2021/07/10 01:30:37;;;;;;;10.25;7.22;;;;;;;20.63;71.75;100752.88;5015908;28;20449;-84
2021/07/10 01:33:04;;;;;;;10.85;8.05;;;;;;;20.74;71.45;100748.94;5044639;28;20025;-81
2021/07/10 01:35:29;;;;;;;11.75;6.97;;;;;;;20.72;71.54;100746.34;5037637;28;20036;-82
2021/07/10 01:37:55;;;;;;;11.02;7.65;;;;;;;20.62;71.65;100753.78;5028631;28;20025;-83
2021/07/10 01:40:22;;;;;;;13.60;7.75;;;;;;;20.48;72.06;100748.06;5031064;28;20025;-82
2021/07/10 01:42:49;;;;;;;12.45;7.50;;;;;;;20.44;72.15;100741.97;5047319;28;20044;-81
2021/07/10 01:45:17;;;;;;;14.70;8.02;;;;;;;20.47;72.72;100740.13;5031914;28;20033;-82
2021/07/10 01:47:43;;;;;;;19.77;7.28;;;;;;;20.38;72.81;100738.66;5030727;28;20025;-82
2021/07/10 01:50:10;;;;;;;9.05;7.90;;;;;;;20.35;72.46;100728.97;5046648;28;20027;-84
2021/07/10 01:52:37;;;;;;;12.30;6.90;;;;;;;20.29;72.73;100738.97;5047819;28;20083;-82
2021/07/10 01:55:05;;;;;;;8.70;7.70;;;;;;;20.26;72.98;100742.63;5047626;28;20469;-83
2021/07/10 01:57:31;;;;;;;15.25;8.60;;;;;;;20.18;73.80;100736.69;5041684;28;20048;-83
2021/07/10 02:00:00;;;;;;;12.52;7.80;;;;;;;20.18;72.97;100731.34;5042982;28;20029;-83
2021/07/10 02:02:25;;;;;;;22.02;8.40;;;;;;;19.99;73.72;100731.09;5043737;28;20053;-82
2021/07/10 02:04:52;;;;;;;13.13;7.15;;;;;;;19.96;73.32;100731.22;5041246;28;20018;-82
2021/07/10 02:07:18;;;;;;;10.40;6.65;;;;;;;20.00;73.51;100724.88;5045610;28;20028;-82
2021/07/10 02:09:44;;;;;;;14.07;8.07;;;;;;;20.03;73.87;100725.63;5030356;28;20050;-85
2021/07/10 02:12:11;;;;;;;11.75;8.07;;;;;;;20.10;73.79;100722.75;5037546;28;20072;-85
2021/07/10 02:14:37;;;;;;;22.70;7.60;;;;;;;20.07;73.22;100726.41;5037232;28;20108;-87
2021/07/10 02:17:03;;;;;;;10.25;8.00;;;;;;;20.09;72.57;100729.91;5028506;28;20453;-86
2021/07/10 02:19:28;;;;;;;13.05;7.50;;;;;;;19.97;72.78;100732.94;5028412;28;20068;-86
2021/07/10 02:21:54;;;;;;;10.40;7.32;;;;;;;20.07;72.56;100734.41;5040133;28;20057;-86
2021/07/10 02:24:19;;;;;;;14.63;7.90;;;;;;;20.00;72.71;100732.88;5027749;28;20369;-85
2021/07/10 02:26:45;;;;;;;15.55;8.57;;;;;;;20.10;72.78;100726.28;5053512;28;20029;-83
2021/07/10 02:29:11;;;;;;;17.33;7.75;;;;;;;20.20;72.89;100721.50;5050369;28;20035;-85
2021/07/10 02:31:36;;;;;;;14.90;8.00;;;;;;;20.25;72.32;100735.53;5026328;28;20103;-84
2021/07/10 02:34:03;;;;;;;15.65;8.10;;;;;;;20.23;72.43;100734.75;5042297;28;20025;-84
2021/07/10 02:36:30;;;;;;;13.35;7.80;;;;;;;20.22;71.95;100738.31;5046511;28;20028;-85
2021/07/10 02:38:56;;;;;;;13.45;7.15;;;;;;;20.10;71.97;100738.75;5032526;28;20052;-84
2021/07/10 02:41:22;;;;;;;11.85;7.55;;;;;;;20.14;72.12;100737.72;5048990;28;20025;-84
2021/07/10 02:43:47;;;;;;;8.45;7.50;;;;;;;20.14;71.74;100738.59;5029347;28;20029;-84
2021/07/10 02:46:13;;;;;;;9.38;6.80;;;;;;;20.36;70.92;100736.03;5047943;28;20166;-85
2021/07/10 02:48:38;;;;;;;11.65;7.22;;;;;;;20.51;70.99;100739.06;5050764;28;20025;-85
2021/07/10 02:51:04;;;;;;;11.73;8.00;;;;;;;20.57;70.18;100739.75;5048264;28;20025;-85
2021/07/10 02:53:29;;;;;;;8.70;6.90;;;;;;;20.47;69.29;100742.81;5054716;28;20028;-86
2021/07/10 02:55:55;;;;;;;7.93;6.57;;;;;;;20.50;68.87;100735.53;5031329;28;20033;-85
2021/07/10 02:58:20;;;;;;;11.57;7.47;;;;;;;20.55;68.25;100735.38;5046099;28;20557;-85
2021/07/10 03:00:46;;;;;;;18.70;7.25;;;;;;;20.48;67.97;100731.19;5023729;28;20068;-86
2021/07/10 03:03:12;;;;;;;8.70;6.38;;;;;;;20.59;68.01;100737.91;5032908;28;20423;-84
2021/07/10 03:05:38;;;;;;;17.83;5.53;;;;;;;20.62;67.94;100735.13;5046336;28;20029;-84
2021/07/10 03:08:05;;;;;;;9.93;7.45;;;;;;;20.65;67.65;100735.03;5036574;28;20685;-84
2021/07/10 03:10:31;;;;;;;13.45;6.30;;;;;;;20.70;67.60;100734.88;5046768;28;20084;-85
2021/07/10 03:12:57;;;;;;;19.92;6.70;;;;;;;20.56;67.48;100723.84;5033363;28;20469;-85
2021/07/10 03:15:24;;;;;;;10.50;6.63;;;;;;;20.59;67.08;100727.25;5050192;28;20032;-85
2021/07/10 03:17:50;;;;;;;8.75;6.25;;;;;;;20.55;67.19;100722.91;5038163;28;20373;-85
2021/07/10 03:20:18;;;;;;;8.55;5.65;;;;;;;20.66;67.41;100725.22;5029742;28;20044;-84
2021/07/10 03:22:44;;;;;;;15.02;7.20;;;;;;;20.63;66.93;100728.03;5044252;28;20023;-85
2021/07/10 03:25:11;;;;;;;19.65;7.22;;;;;;;20.56;66.91;100732.69;5044087;28;20115;-86
2021/07/10 03:27:36;;;;;;;21.65;6.13;;;;;;;20.61;67.33;100724.53;5046954;28;20037;-86
2021/07/10 03:30:05;;;;;;;10.77;7.72;;;;;;;20.76;67.17;100731.94;5028839;28;20483;-85
2021/07/10 03:32:31;;;;;;;14.00;8.10;;;;;;;20.70;67.20;100733.97;5029081;28;20048;-85
2021/07/10 03:34:57;;;;;;;13.10;7.78;;;;;;;20.57;68.02;100728.22;5030590;28;20037;-84
2021/07/10 03:37:22;;;;;;;9.75;6.88;;;;;;;20.68;67.96;100726.06;5044565;28;20021;-85
2021/07/10 03:39:47;;;;;;;14.90;6.40;;;;;;;20.74;68.52;100719.59;5042918;28;20468;-86
2021/07/10 03:42:13;;;;;;;14.60;7.53;;;;;;;20.80;68.52;100728.25;5026602;28;20047;-86
2021/07/10 03:44:38;;;;;;;16.92;8.00;;;;;;;20.79;67.78;100723.88;5033259;28;20032;-87
2021/07/10 03:47:04;;;;;;;9.75;7.10;;;;;;;20.89;67.50;100727.03;5031581;28;20632;-86
2021/07/10 03:49:29;;;;;;;7.68;5.93;;;;;;;21.01;67.90;100718.56;5047815;28;20070;-86
2021/07/10 03:51:55;;;;;;;13.85;6.53;;;;;;;21.08;68.94;100714.72;5050366;28;20484;-86
2021/07/10 03:54:20;;;;;;;12.57;7.68;;;;;;;21.06;65.60;100715.72;5042726;28;20029;-88
2021/07/10 03:56:46;;;;;;;8.70;7.80;;;;;;;21.13;65.74;100711.88;5048984;28;20036;-85
2021/07/10 03:59:12;;;;;;;12.70;8.35;;;;;;;21.16;65.81;100706.41;5039192;28;20036;-84
2021/07/10 04:01:41;;;;;;;9.77;7.13;;;;;;;21.15;65.74;100707.38;5042865;28;20133;-84
2021/07/10 04:04:07;;;;;;;10.25;6.20;;;;;;;21.21;64.22;100703.56;5038691;28;20026;-84
2021/07/10 04:06:33;;;;;;;11.18;7.18;;;;;;;21.12;64.17;100707.50;5031599;28;20029;-85
2021/07/10 04:08:58;;;;;;;13.52;7.07;;;;;;;21.09;64.48;100699.59;5042563;28;20576;-85
2021/07/10 04:11:24;;;;;;;18.92;9.20;;;;;;;21.31;63.81;100699.63;5040340;28;20057;-85
2021/07/10 04:13:49;;;;;;;10.80;6.55;;;;;;;;;;5033017;28;20770;-85
2021/07/10 04:16:14;;;;;;;17.00;7.28;;;;;;;21.44;63.84;100698.22;5049847;28;20064;-84
2021/07/10 04:18:43;;;;;;;26.52;7.82;;;;;;;21.57;64.01;100695.94;5047799;28;20033;-86
2021/07/10 04:21:10;;;;;;;15.25;6.80;;;;;;;21.66;63.56;100702.69;5044518;28;20070;-85
2021/07/10 04:23:35;;;;;;;14.13;7.05;;;;;;;21.70;63.48;100690.94;5038241;28;20084;-85
2021/07/10 04:26:01;;;;;;;18.70;8.40;;;;;;;21.80;64.63;100691.44;5048444;28;20052;-85
2021/07/10 04:28:26;;;;;;;11.50;7.15;;;;;;;21.87;63.49;100695.59;5046481;28;20043;-85
2021/07/10 04:30:52;;;;;;;13.43;6.53;;;;;;;22.01;65.05;100695.88;5046136;28;20025;-84
2021/07/10 04:33:20;;;;;;;13.68;7.57;;;;;;;22.07;65.43;100698.25;5034997;28;20090;-85
2021/07/10 04:35:46;;;;;;;16.60;7.55;;;;;;;22.12;63.86;100692.72;5029136;28;20112;-84
2021/07/10 04:38:12;;;;;;;11.95;7.13;;;;;;;22.12;65.09;100692.72;5010666;28;20556;-85
2021/07/10 04:40:37;;;;;;;19.42;7.15;;;;;;;22.24;64.74;100699.34;5049318;28;20472;-84
2021/07/10 04:43:03;;;;;;;11.05;7.40;;;;;;;22.34;65.04;100695.34;5046397;28;20115;-85
2021/07/10 04:45:29;;;;;;;12.32;6.80;;;;;;;22.42;63.81;100708.38;5040823;28;20021;-86
2021/07/10 04:47:55;;;;;;;12.35;6.35;;;;;;;22.46;63.58;100704.63;5047258;28;20025;-84
2021/07/10 04:50:22;;;;;;;12.75;5.97;;;;;;;22.55;62.52;100701.56;5048463;28;20029;-83
2021/07/10 04:52:48;;;;;;;9.57;5.25;;;;;;;22.64;62.82;100705.59;5048399;28;20021;-83
2021/07/10 04:55:14;;;;;;;10.32;7.43;;;;;;;22.70;61.82;100708.00;5037357;28;20025;-81
2021/07/10 04:57:41;;;;;;;13.25;6.88;;;;;;;22.83;61.94;100714.53;5055868;28;20021;-83
2021/07/10 05:00:07;;;;;;;15.68;7.40;;;;;;;22.90;62.51;100717.81;5032194;28;20510;-81
2021/07/10 05:02:33;;;;;;;14.45;5.32;;;;;;;22.84;59.52;100713.59;5053274;28;20053;-82
2021/07/10 05:04:59;;;;;;;17.92;7.05;;;;;;;22.96;61.50;100718.34;5045785;28;20452;-83
2021/07/10 05:07:24;;;;;;;9.50;6.00;;;;;;;23.08;60.02;100724.13;5045670;28;20040;-83
2021/07/10 05:09:51;;;;;;;13.10;5.82;;;;;;;23.28;60.40;100725.88;5045268;28;20025;-84
2021/07/10 05:12:20;;;;;;;11.45;6.03;;;;;;;23.41;58.97;100727.00;5037143;28;20801;-83
2021/07/10 05:14:47;;;;;;;9.82;6.78;;;;;;;23.63;59.14;100726.81;5060052;28;20127;-83
2021/07/10 05:17:13;;;;;;;12.93;5.63;;;;;;;23.80;57.78;100726.00;5030812;28;20378;-82
2021/07/10 05:19:38;;;;;;;12.60;6.72;;;;;;;24.00;57.74;100733.06;5057148;28;20112;-83
2021/07/10 05:22:04;;;;;;;18.27;6.72;;;;;;;24.15;59.01;100732.25;5047580;28;20025;-82
2021/07/10 05:24:29;;;;;;;14.45;6.00;;;;;;;24.32;56.13;100730.53;5029637;28;20029;-83
2021/07/10 05:26:59;;;;;;;11.05;5.57;;;;;;;24.54;55.44;100730.31;5046825;28;20033;-82
2021/07/10 05:29:25;;;;;;;11.93;6.70;;;;;;;24.73;55.20;100735.56;5049323;28;20028;-84
2021/07/10 05:31:54;;;;;;;18.48;6.43;;;;;;;24.58;54.81;100742.59;5040868;28;20111;-85
2021/07/10 05:34:19;;;;;;;18.00;5.90;;;;;;;24.42;55.46;100735.34;5042417;28;20025;-83
2021/07/10 05:36:48;;;;;;;10.90;5.57;;;;;;;24.52;53.63;100742.94;5044574;28;20053;-84
2021/07/10 05:39:13;;;;;;;12.00;6.80;;;;;;;24.73;52.93;100746.28;5044241;28;20108;-83
2021/07/10 05:41:39;;;;;;;13.07;5.80;;;;;;;24.87;54.78;100748.22;5046866;28;20104;-84
2021/07/10 05:44:05;;;;;;;15.68;6.53;;;;;;;24.94;54.53;100755.84;5036417;28;20022;-85
2021/07/10 05:46:30;;;;;;;20.70;6.68;;;;;;;25.12;53.85;100758.47;5029534;28;20040;-84
2021/07/10 05:48:56;;;;;;;7.20;5.10;;;;;;;25.12;52.98;100756.66;5038137;28;20056;-84
2021/07/10 05:51:21;;;;;;;8.07;5.38;;;;;;;25.35;51.58;100755.41;5054291;28;20052;-85
2021/07/10 05:53:47;;;;;;;12.27;5.50;;;;;;;25.59;51.97;100760.34;5045267;28;20021;-85
2021/07/10 05:56:12;;;;;;;14.90;6.43;;;;;;;25.48;53.28;100752.91;5047224;28;20392;-83
2021/07/10 05:58:38;;;;;;;12.20;5.88;;;;;;;25.41;52.00;100757.75;5035868;28;20028;-84
2021/07/10 06:01:04;;;;;;;11.50;5.65;;;;;;;25.71;52.16;100751.59;5045356;28;20376;-86
2021/07/10 06:03:29;;;;;;;7.43;4.00;;;;;;;25.69;54.13;100759.75;5013839;28;20038;-82
2021/07/10 06:05:55;;;;;;;14.73;5.20;;;;;;;25.58;52.59;100759.47;5012749;28;20029;-83
2021/07/10 06:08:20;;;;;;;10.07;6.10;;;;;;;25.64;53.26;100759.16;5012266;28;20046;-82
2021/07/10 06:10:46;;;;;;;11.48;5.25;;;;;;;25.77;52.40;100759.28;5019376;28;20041;-82
2021/07/10 06:13:12;;;;;;;15.80;5.32;;;;;;;25.58;50.97;100764.84;5035190;28;20041;-82
2021/07/10 06:15:40;;;;;;;7.57;4.68;;;;;;;25.75;51.23;100769.25;5024571;28;20040;-82
2021/07/10 06:18:08;;;;;;;7.53;4.65;;;;;;;26.07;51.51;100766.56;5009699;28;20095;-83
2021/07/10 06:20:36;;;;;;;8.95;5.00;;;;;;;26.27;51.66;100760.88;5002508;28;20030;-83
2021/07/10 06:23:06;;;;;;;16.33;5.25;;;;;;;26.30;50.24;100767.88;5008064;28;20018;-83
2021/07/10 06:25:37;;;;;;;7.28;4.30;;;;;;;25.97;50.29;100773.44;5029214;28;20029;-82
2021/07/10 06:28:05;;;;;;;10.13;4.85;;;;;;;26.05;49.19;100779.22;5004033;28;20022;-83
2021/07/10 06:30:31;;;;;;;22.13;6.03;;;;;;;26.22;49.87;100762.06;5012214;28;20036;-82
2021/07/10 06:32:57;;;;;;;7.35;5.70;;;;;;;26.36;48.03;100767.50;5021907;28;20068;-84
2021/07/10 06:35:23;;;;;;;21.63;6.13;;;;;;;26.63;48.03;100772.22;5008080;28;20021;-85
2021/07/10 06:37:49;;;;;;;7.47;4.10;;;;;;;26.60;44.98;100780.44;5013766;28;20025;-87
2021/07/10 06:40:15;;;;;;;8.77;3.03;;;;;;;26.66;44.82;100778.25;5008415;28;20033;-86
2021/07/10 06:42:42;;;;;;;10.82;4.93;;;;;;;26.64;46.27;100772.09;5032446;28;20029;-85
2021/07/10 06:45:11;;;;;;;13.23;4.55;;;;;;;26.59;46.33;100782.28;5009265;28;20075;-87
2021/07/10 06:47:36;;;;;;;8.50;5.28;;;;;;;26.65;48.60;100778.38;5030842;28;20029;-85
2021/07/10 06:50:06;;;;;;;7.35;4.47;;;;;;;26.70;47.84;100776.25;5017138;28;20026;-86
2021/07/10 06:52:31;;;;;;;10.75;5.05;;;;;;;26.60;49.63;100781.34;5014361;28;20037;-86
2021/07/10 06:55:22;;;;;;;9.88;4.75;;;;;;;26.53;47.57;100777.25;5016619;28;20099;-86
2021/07/10 06:57:48;;;;;;;8.57;4.78;;;;;;;26.70;47.15;100777.09;5031340;28;20164;-83
2021/07/10 07:00:19;;;;;;;10.88;5.93;;;;;;;26.70;47.63;100779.81;5007309;28;20029;-83
2021/07/10 07:02:46;;;;;;;7.20;4.40;;;;;;;26.89;45.35;100775.97;5020197;28;20042;-83
2021/07/10 07:05:12;;;;;;;10.07;3.83;;;;;;;26.95;43.22;100783.69;5053939;28;20032;-82
2021/07/10 07:07:41;;;;;;;4.68;3.50;;;;;;;27.05;42.03;100782.13;5022568;28;20026;-83
2021/07/10 07:10:11;;;;;;;8.13;3.60;;;;;;;27.02;40.89;100785.03;5035107;28;20034;-83
2021/07/10 07:12:37;;;;;;;9.75;2.95;;;;;;;27.15;41.77;100772.50;5027013;28;20056;-86
2021/07/10 07:15:08;;;;;;;5.43;3.45;;;;;;;27.08;41.25;100772.97;5010136;28;20053;-85
2021/07/10 07:17:34;;;;;;;5.55;3.60;;;;;;;27.11;43.25;100767.38;5055373;28;20036;-86
2021/07/10 07:20:01;;;;;;;4.70;3.13;;;;;;;27.16;42.90;100771.53;5054477;28;20026;-88
2021/07/10 07:22:26;;;;;;;4.57;3.47;;;;;;;27.28;42.39;100779.84;5024282;28;20033;-87
2021/07/10 07:24:52;;;;;;;19.58;5.05;;;;;;;27.15;40.81;100771.63;5022750;28;20033;-85
2021/07/10 07:27:17;;;;;;;14.10;5.22;;;;;;;27.30;42.23;100777.88;5024517;28;20063;-77
2021/07/10 07:29:43;;;;;;;7.22;4.13;;;;;;;27.40;43.23;100786.28;5045723;28;20033;-77
2021/07/10 07:32:09;;;;;;;12.60;4.20;;;;;;;27.43;42.94;100786.06;5043804;28;20025;-77
2021/07/10 07:34:35;;;;;;;10.98;4.90;;;;;;;27.47;45.80;100768.75;5046973;28;20043;-77
2021/07/10 07:37:00;;;;;;;4.35;3.63;;;;;;;27.53;46.57;100771.00;5043137;28;20033;-77
2021/07/10 07:39:27;;;;;;;7.22;5.05;;;;;;;27.57;41.18;100781.50;5026642;28;20052;-77
2021/07/10 07:41:52;;;;;;;11.63;3.88;;;;;;;27.63;40.05;100776.66;5047651;28;20104;-76
2021/07/10 07:44:18;;;;;;;8.98;3.30;;;;;;;27.62;43.78;100775.81;5045205;28;20032;-76
2021/07/10 07:46:44;;;;;;;25.80;5.00;;;;;;;27.50;40.80;100774.78;5024924;28;20029;-75
2021/07/10 07:49:09;;;;;;;7.47;4.20;;;;;;;27.76;42.59;100773.06;5050635;28;20014;-78
2021/07/10 07:51:35;;;;;;;48.10;11.63;;;;;;;27.82;39.93;100777.19;5045028;28;20048;-76
2021/07/10 07:54:00;;;;;;;4.53;3.50;;;;;;;27.97;40.07;100761.84;5045044;28;20029;-76
2021/07/10 07:56:26;;;;;;;10.55;5.32;;;;;;;28.03;39.82;100766.84;5046098;28;20029;-77
2021/07/10 07:58:52;;;;;;;21.30;5.32;;;;;;;28.12;41.24;100758.13;5049565;28;20028;-81
2021/07/10 08:01:18;;;;;;;6.07;3.90;;;;;;;27.89;38.93;100764.22;5030696;28;20440;-80
2021/07/10 08:03:44;;;;;;;8.05;3.88;;;;;;;27.92;40.83;100759.44;5023791;28;20096;-84
2021/07/10 08:06:09;;;;;;;6.93;3.05;;;;;;;27.85;39.59;100760.84;5010457;28;20029;-82
2021/07/10 08:08:39;;;;;;;10.25;3.55;;;;;;;27.90;38.92;100747.03;4981571;28;20037;-82
2021/07/10 08:11:09;;;;;;;7.93;3.42;;;;;;;28.14;37.83;100760.69;5000650;28;20030;-81
2021/07/10 08:13:35;;;;;;;8.15;4.25;;;;;;;28.16;38.66;100756.91;5000375;28;20617;-81
2021/07/10 08:16:01;;;;;;;4.93;3.15;;;;;;;28.50;41.72;100759.19;5008533;28;20026;-84
2021/07/10 08:18:27;;;;;;;5.22;3.03;;;;;;;28.74;35.58;100762.00;5008869;28;20038;-84
2021/07/10 08:20:53;;;;;;;6.65;3.60;;;;;;;28.85;34.04;100756.69;5012007;28;20025;-84
2021/07/10 08:23:19;;;;;;;6.20;2.88;;;;;;;29.10;36.27;100755.81;5011075;28;20037;-82
2021/07/10 08:25:46;;;;;;;7.22;3.33;;;;;;;29.14;35.55;100754.63;5006123;28;20025;-82
2021/07/10 08:28:12;;;;;;;6.88;3.55;;;;;;;29.44;35.35;100754.22;5007679;28;20491;-81
2021/07/10 08:30:37;;;;;;;12.50;3.88;;;;;;;29.68;36.06;100753.41;5011200;28;20030;-81
2021/07/10 08:33:03;;;;;;;9.95;3.25;;;;;;;29.79;37.92;100747.19;5003375;28;20045;-82
2021/07/10 08:35:28;;;;;;;6.13;3.30;;;;;;;29.76;35.22;100747.41;5009782;28;20030;-81
2021/07/10 08:37:54;;;;;;;13.50;3.35;;;;;;;29.57;34.37;100756.91;4988966;28;20038;-81
2021/07/10 08:40:22;;;;;;;8.90;3.47;;;;;;;29.64;34.38;100747.34;4999097;28;20101;-82
2021/07/10 08:42:50;;;;;;;9.65;3.15;;;;;;;30.19;35.53;100757.69;5008858;28;20529;-80
2021/07/10 08:45:16;;;;;;;13.30;2.47;;;;;;;29.84;32.81;100753.13;5007775;28;20076;-81
2021/07/10 08:47:43;;;;;;;6.97;3.60;;;;;;;29.96;31.70;100752.19;5001654;28;20030;-81
2021/07/10 08:50:13;;;;;;;5.80;3.28;;;;;;;30.22;32.68;100747.47;5010131;28;20030;-83
2021/07/10 08:52:39;;;;;;;12.07;3.80;;;;;;;30.12;33.42;100753.72;5007726;28;20481;-82
2021/07/10 08:55:10;;;;;;;5.13;3.65;;;;;;;29.98;36.46;100749.38;5004714;28;20084;-81
2021/07/10 08:57:41;;;;;;;16.05;4.20;;;;;;;30.13;33.48;100748.16;4996202;28;20564;-81
2021/07/10 09:00:10;;;;;;;4.78;2.58;;;;;;;30.11;33.85;100744.75;5016138;28;20030;-82
2021/07/10 09:02:40;;;;;;;16.98;3.50;;;;;;;30.05;34.42;100750.63;5011420;28;20039;-82
2021/07/10 09:05:07;;;;;;;10.73;4.07;;;;;;;30.80;33.94;100746.63;5009574;28;20073;-82
2021/07/10 09:07:33;;;;;;;5.85;3.22;;;;;;;31.25;33.73;100739.34;5025805;28;20034;-80
2021/07/10 09:09:58;;;;;;;7.10;3.65;;;;;;;31.51;32.75;100739.94;5031262;28;20048;-82
2021/07/10 09:12:31;;;;;;;8.20;4.43;;;;;;;31.65;31.09;100738.78;5027521;28;20033;-82
2021/07/10 09:15:17;;;;;;;6.18;4.20;;;;;;;31.98;30.57;100741.53;5025512;28;20366;-81
2021/07/10 09:17:47;;;;;;;6.35;3.92;;;;;;;31.74;29.15;100743.44;5023854;28;20053;-83
2021/07/10 09:20:28;;;;;;;7.18;3.00;;;;;;;32.36;30.98;100728.25;5054622;28;20061;-82
2021/07/10 09:22:55;;;;;;;7.70;2.78;;;;;;;32.28;29.36;100735.34;5027171;28;20017;-81
2021/07/10 09:25:29;;;;;;;8.07;3.03;;;;;;;30.88;30.03;100736.06;5036247;28;20038;-81
2021/07/10 09:28:02;;;;;;;12.50;2.70;;;;;;;31.50;30.38;100729.25;5026531;28;20018;-82
2021/07/10 09:30:43;;;;;;;7.43;3.60;;;;;;;31.81;30.52;100729.38;5021614;28;20017;-81
2021/07/10 09:33:19;;;;;;;7.88;4.25;;;;;;;32.13;30.76;100724.81;5031851;28;20057;-82
2021/07/10 09:36:11;;;;;;;8.68;3.25;;;;;;;32.70;27.81;100722.59;5029275;28;20021;-82
2021/07/10 09:38:36;;;;;;;6.80;3.28;;;;;;;32.77;28.78;100721.06;5020373;28;20485;-81
2021/07/10 09:41:08;;;;;;;6.68;3.58;;;;;;;32.59;28.54;100709.09;5024076;28;20025;-81
2021/07/10 09:43:36;;;;;;;7.33;3.43;;;;;;;32.81;29.89;100718.94;5033314;28;20029;-82
2021/07/10 09:46:04;;;;;;;4.93;3.25;;;;;;;31.80;29.13;100724.97;5029362;28;20054;-81
2021/07/10 09:48:33;;;;;;;7.25;3.40;;;;;;;31.80;30.03;100717.66;5027393;28;20025;-81
2021/07/10 09:51:20;;;;;;;4.03;3.00;;;;;;;30.66;31.35;100717.91;5023255;28;20524;-81
2021/07/10 09:54:12;;;;;;;7.13;4.90;;;;;;;31.45;29.39;100716.06;5005737;28;20037;-80
2021/07/10 09:56:56;;;;;;;6.82;3.30;;;;;;;31.24;30.89;100712.38;5028198;28;20032;-81
2021/07/10 09:59:24;;;;;;;5.07;2.95;;;;;;;31.52;29.10;100714.56;5027156;28;20067;-81
2021/07/10 10:01:50;;;;;;;6.75;3.15;;;;;;;32.36;29.60;100716.53;5028221;28;20122;-81
2021/07/10 10:04:20;;;;;;;6.95;3.00;;;;;;;33.03;29.21;100711.56;5027770;28;20041;-81
2021/07/10 10:06:48;;;;;;;8.02;3.35;;;;;;;32.59;26.53;100703.66;5026414;28;20109;-81
2021/07/10 10:09:23;;;;;;;6.72;2.97;;;;;;;32.73;29.42;100714.19;5029656;28;20022;-80
2021/07/10 10:12:00;;;;;;;3.80;2.65;;;;;;;31.13;29.69;100702.41;5011011;28;20051;-82
2021/07/10 10:14:30;;;;;;;9.07;3.25;;;;;;;31.09;31.47;100699.09;5032211;28;20490;-82
2021/07/10 10:16:58;;;;;;;6.93;3.40;;;;;;;31.63;30.91;100691.97;5032175;28;20040;-81
2021/07/10 10:19:26;;;;;;;6.43;3.65;;;;;;;32.49;28.69;100698.16;5035082;28;20030;-80
2021/07/10 10:21:54;;;;;;;9.57;3.78;;;;;;;32.99;28.00;100697.38;5032979;28;20033;-81
2021/07/10 10:24:21;;;;;;;7.47;3.40;;;;;;;32.25;27.93;100703.03;5018483;28;20030;-81
2021/07/10 10:26:51;;;;;;;8.52;3.72;;;;;;;32.13;28.29;100707.66;5031037;28;20033;-85
2021/07/10 10:29:18;;;;;;;10.95;3.67;;;;;;;32.50;30.06;100699.00;5032308;28;20377;-77
2021/07/10 10:31:45;;;;;;;5.93;4.25;;;;;;;32.75;28.43;100689.56;5032796;28;20021;-76
2021/07/10 10:34:11;;;;;;;8.60;3.30;;;;;;;33.06;28.43;100695.88;5012097;28;20024;-74
2021/07/10 10:36:46;;;;;;;15.70;3.47;;;;;;;31.65;28.60;100687.25;5020276;28;20087;-76
2021/07/10 10:39:24;;;;;;;11.30;4.70;;;;;;;32.23;31.81;100691.44;5013275;28;20026;-73
2021/07/10 10:41:55;;;;;;;11.63;2.95;;;;;;;32.23;29.76;100670.56;5016524;28;20022;-74
2021/07/10 10:44:21;;;;;;;10.77;3.42;;;;;;;31.78;29.00;100676.22;5024352;28;20045;-73
2021/07/10 10:46:55;;;;;;;12.88;4.72;;;;;;;32.41;29.04;100684.41;5012875;28;20042;-72
2021/07/10 10:49:42;;;;;;;8.50;3.47;;;;;;;32.11;30.61;100674.34;5021147;28;20035;-74
2021/07/10 10:52:26;;;;;;;14.20;3.83;;;;;;;32.33;28.98;100682.31;5022981;28;20410;-74
2021/07/10 10:55:01;;;;;;;15.75;4.57;;;;;;;32.06;29.40;100676.59;5020550;28;20021;-74
2021/07/10 10:57:33;;;;;;;18.95;4.15;;;;;;;30.95;29.87;100669.53;4998313;28;20036;-75
2021/07/10 10:59:58;;;;;;;;;;;;;;;31.49;29.57;100665.09;5029576;28;20017;-73
2021/07/10 11:02:26;;;;;;;5.60;3.90;;;;;;;31.79;27.93;100668.94;5011797;28;20300;-80
2021/07/10 11:04:58;;;;;;;9.18;3.45;;;;;;;32.52;30.15;100662.59;5014716;28;20048;-80
2021/07/10 11:07:36;;;;;;;36.13;25.38;;;;;;;33.08;30.63;100663.94;5021018;28;20416;-76
2021/07/10 11:10:07;;;;;;;50.15;36.08;;;;;;;33.33;32.95;100654.41;5020955;28;20014;-75
2021/07/10 11:12:52;;;;;;;8.95;6.95;;;;;;;32.42;30.30;100655.38;5024957;28;20120;-74
2021/07/10 11:15:27;;;;;;;9.85;6.03;;;;;;;33.25;30.86;100653.38;5027032;28;20030;-72
2021/07/10 11:17:59;;;;;;;28.65;17.23;;;;;;;32.88;29.02;100657.59;5026701;28;20029;-75
2021/07/10 11:20:45;;;;;;;11.40;8.48;;;;;;;33.19;32.32;100652.09;5028265;28;20032;-73
2021/07/10 11:23:34;;;;;;;18.52;12.52;;;;;;;33.13;30.25;100642.66;5022929;28;20071;-74